Time;durP1;ratioP1;P1;durP2;ratioP2;P2;SDS_P1;SDS_P2;PMS_P1;PMS_P2;Temp;Humidity;BMP_temperature;BMP_pressure;BME280_temperature;BME280_humidity;BME280_pressure;Samples;Min_cycle;Max_cycle;Signal;HPM_P1;HPM_P2
2021/12/26 00:00:34;;;;;;;3.90;2.00;;;2.40;76.60;;;;;;5008202;28;20068;-70
2021/12/26 00:03:03;;;;;;;5.00;2.42;;;2.40;76.60;;;;;;5012333;28;20056;-69
2021/12/26 00:05:37;;;;;;;5.13;2.38;;;2.30;76.50;;;;;;4905084;28;20042;-71
2021/12/26 00:08:11;;;;;;;5.35;2.22;;;2.30;76.50;;;;;;332938;28;10022888;-71
2021/12/26 00:10:52;;;;;;;5.32;2.30;;;2.40;76.40;;;;;;5012353;28;21025;-71
2021/12/26 00:13:25;;;;;;;4.30;2.65;;;2.40;76.50;;;;;;5011382;28;20447;-70
2021/12/26 00:15:53;;;;;;;5.95;2.58;;;2.40;76.30;;;;;;5011282;28;20411;-70
2021/12/26 00:18:27;;;;;;;4.78;2.03;;;2.30;76.50;;;;;;5011589;28;20056;-69
2021/12/26 00:20:55;;;;;;;6.50;2.60;;;2.40;76.50;;;;;;5011385;28;20045;-71
2021/12/26 00:23:23;;;;;;;8.00;2.67;;;2.30;76.50;;;;;;5011333;28;20104;-71
2021/12/26 00:25:50;;;;;;;4.68;3.08;;;2.30;76.40;;;;;;5010547;28;20049;-70
2021/12/26 00:28:17;;;;;;;5.35;2.50;;;2.40;76.20;;;;;;5011067;28;20038;-71
2021/12/26 00:30:45;;;;;;;7.38;2.95;;;2.30;76.30;;;;;;5011579;28;20046;-72
2021/12/26 00:33:14;;;;;;;6.85;3.25;;;2.40;76.50;;;;;;5010862;28;20049;-70
2021/12/26 00:35:41;;;;;;;6.30;2.38;;;2.30;76.30;;;;;;5008083;28;20122;-69
2021/12/26 00:38:09;;;;;;;6.95;3.00;;;2.40;76.40;;;;;;5011306;28;20048;-70
2021/12/26 00:40:37;;;;;;;7.13;2.25;;;2.30;76.30;;;;;;5010574;28;20042;-70
2021/12/26 00:43:04;;;;;;;6.10;3.50;;;2.30;76.20;;;;;;5010860;28;20398;-72
2021/12/26 00:45:31;;;;;;;4.53;2.28;;;2.30;76.30;;;;;;5010294;28;20607;-69
2021/12/26 00:47:57;;;;;;;5.40;2.90;;;2.30;76.30;;;;;;5011579;28;20594;-70
2021/12/26 00:50:29;;;;;;;5.00;2.35;;;2.30;76.40;;;;;;5010745;28;20045;-70
2021/12/26 00:52:57;;;;;;;7.53;2.20;;;2.30;76.60;;;;;;5009588;28;20144;-70
2021/12/26 00:55:25;;;;;;;5.20;2.58;;;2.30;76.60;;;;;;5007644;28;20145;-70
2021/12/26 00:57:52;;;;;;;5.70;2.70;;;2.30;76.50;;;;;;5008818;28;20121;-71
2021/12/26 01:00:23;;;;;;;4.30;2.58;;;2.30;76.70;;;;;;5006717;28;20041;-71
2021/12/26 01:02:51;;;;;;;4.30;1.92;;;2.30;76.70;;;;;;5007085;28;20253;-69
2021/12/26 01:05:21;;;;;;;6.13;2.70;;;2.30;76.80;;;;;;5022894;28;20475;-70
2021/12/26 01:07:57;;;;;;;6.18;2.70;;;2.30;76.80;;;;;;5008823;28;20153;-70
2021/12/26 01:10:25;;;;;;;4.63;2.08;;;2.30;76.80;;;;;;5006364;28;20491;-70
2021/12/26 01:12:54;;;;;;;6.05;2.92;;;2.30;76.90;;;;;;5007217;28;20061;-70
2021/12/26 01:15:24;;;;;;;4.07;2.33;;;2.30;76.90;;;;;;5006897;28;20053;-71
2021/12/26 01:17:56;;;;;;;6.32;3.10;;;2.30;76.70;;;;;;5008494;28;20179;-72
2021/12/26 01:20:42;;;;;;;7.70;3.08;;;2.30;76.60;;;;;;5023460;28;20046;-70
2021/12/26 01:23:12;;;;;;;6.95;2.20;;;2.30;76.70;;;;;;5008987;28;20046;-71
2021/12/26 01:25:40;;;;;;;5.25;2.58;;;2.30;76.80;;;;;;5008070;28;20052;-70
2021/12/26 01:28:08;;;;;;;5.57;2.42;;;2.30;76.60;;;;;;5007133;28;20519;-68
2021/12/26 01:30:38;;;;;;;4.00;1.98;;;2.40;76.40;;;;;;5008620;28;20052;-71
2021/12/26 01:33:06;;;;;;;6.30;2.23;;;2.30;76.50;;;;;;5009425;28;20496;-70
2021/12/26 01:35:38;;;;;;;5.60;2.38;;;2.30;76.50;;;;;;5008623;28;20469;-70
2021/12/26 01:38:14;;;;;;;5.88;2.63;;;2.30;76.50;;;;;;5009228;28;20104;-68
2021/12/26 01:41:08;;;;;;;5.77;2.03;;;2.30;76.50;;;;;;5009833;28;20052;-69
2021/12/26 01:43:48;;;;;;;6.82;2.30;;;2.30;76.50;;;;;;5009252;28;20492;-69
2021/12/26 01:46:21;;;;;;;6.93;2.08;;;2.30;76.50;;;;;;5025815;28;20240;-70
2021/12/26 01:49:01;;;;;;;4.63;2.55;;;2.30;76.40;;;;;;5026147;28;20081;-71
2021/12/26 01:51:28;;;;;;;4.75;2.08;;;2.40;76.30;;;;;;5008872;28;20052;-69
2021/12/26 01:53:58;;;;;;;6.57;2.97;;;2.40;76.40;;;;;;5010715;28;20044;-70
2021/12/26 01:56:25;;;;;;;6.13;3.03;;;2.30;76.30;;;;;;5010577;28;20053;-70
2021/12/26 01:58:52;;;;;;;4.72;1.98;;;2.30;76.30;;;;;;5005389;28;20136;-68
2021/12/26 02:01:38;;;;;;;3.92;2.03;;;2.30;76.30;;;;;;5005436;28;20050;-70
2021/12/26 02:04:05;;;;;;;4.90;2.33;;;2.30;76.30;;;;;;5008882;28;20443;-70
2021/12/26 02:06:33;;;;;;;8.63;3.35;;;2.30;76.30;;;;;;5007382;28;20475;-69
2021/12/26 02:09:01;;;;;;;4.28;2.05;;;2.30;76.40;;;;;;5006239;28;20457;-70
2021/12/26 02:11:33;;;;;;;5.07;2.60;;;2.30;76.40;;;;;;5025310;28;20077;-70
2021/12/26 02:14:02;;;;;;;5.10;1.88;;;2.30;76.30;;;;;;5009315;28;20045;-71
2021/12/26 02:16:41;;;;;;;8.35;2.50;;;2.30;76.40;;;;;;5008383;28;20097;-70
2021/12/26 02:19:11;;;;;;;5.72;2.38;;;2.30;76.40;;;;;;5012342;28;20519;-71
2021/12/26 02:21:59;;;;;;;4.28;1.98;;;2.30;76.50;;;;;;5013933;28;20050;-69
2021/12/26 02:24:30;;;;;;;4.07;2.10;;;2.30;76.70;;;;;;5012439;28;20050;-70
2021/12/26 02:29:42;;;;;;;4.32;1.90;;;2.30;76.50;;;;;;5013528;28;20045;-70
2021/12/26 02:32:10;;;;;;;4.80;2.75;;;2.30;76.40;;;;;;5026572;28;20050;-71
2021/12/26 02:34:37;;;;;;;5.07;2.42;;;2.30;76.30;;;;;;5026315;28;20089;-72
2021/12/26 02:37:06;;;;;;;2.95;1.42;;;2.20;76.30;;;;;;5009917;28;20128;-70
2021/12/26 02:39:35;;;;;;;5.50;1.80;;;2.30;76.40;;;;;;5012396;28;20042;-71
2021/12/26 02:42:02;;;;;;;4.60;2.22;;;2.20;76.50;;;;;;5010279;28;20060;-70
2021/12/26 02:44:35;;;;;;;3.58;2.15;;;2.30;76.50;;;;;;5009880;28;20048;-69
2021/12/26 02:47:03;;;;;;;4.40;2.28;;;2.30;76.40;;;;;;5010115;28;20061;-69
2021/12/26 02:49:30;;;;;;;5.97;2.28;;;2.30;76.50;;;;;;5010616;28;20045;-70
2021/12/26 02:51:57;;;;;;;3.75;1.70;;;2.20;76.70;;;;;;5011832;28;20399;-69
2021/12/26 02:54:26;;;;;;;6.53;2.53;;;2.20;76.50;;;;;;5011055;28;20060;-71
2021/12/26 02:56:54;;;;;;;7.22;3.05;;;2.20;76.60;;;;;;5010312;28;20046;-70
2021/12/26 02:59:21;;;;;;;4.38;2.13;;;2.20;76.60;;;;;;5026923;28;20362;-68
2021/12/26 03:01:53;;;;;;;4.63;2.13;;;2.20;76.70;;;;;;5007578;28;20046;-70
2021/12/26 03:04:22;;;;;;;4.72;2.42;;;2.20;76.80;;;;;;5009742;28;20050;-71
2021/12/26 03:06:59;;;;;;;6.03;2.83;;;2.20;76.70;;;;;;5026891;28;20049;-70
2021/12/26 03:09:31;;;;;;;4.18;2.53;;;2.20;76.70;;;;;;5011817;28;20483;-71
2021/12/26 03:12:01;;;;;;;3.03;2.10;;;2.20;76.50;;;;;;5010753;28;20121;-71
2021/12/26 03:14:35;;;;;;;4.35;2.17;;;2.20;76.70;;;;;;5011623;28;20092;-72
2021/12/26 03:17:02;;;;;;;5.20;1.88;;;2.30;76.60;;;;;;5011554;28;20061;-68
2021/12/26 03:19:37;;;;;;;4.43;1.98;;;2.20;76.80;;;;;;5011926;28;20038;-71
2021/12/26 03:22:05;;;;;;;4.40;2.33;;;2.30;76.80;;;;;;5028240;28;20514;-70
2021/12/26 03:24:34;;;;;;;3.78;2.28;;;2.30;76.90;;;;;;5027733;28;20113;-69
2021/12/26 03:27:03;;;;;;;5.25;2.35;;;2.30;76.70;;;;;;5010332;28;20576;-68
2021/12/26 03:29:35;;;;;;;4.50;1.95;;;2.30;76.60;;;;;;5011339;28;20535;-70
2021/12/26 03:32:07;;;;;;;4.28;2.00;;;2.20;76.70;;;;;;5011330;28;20054;-69
2021/12/26 03:34:36;;;;;;;5.18;2.33;;;2.30;76.90;;;;;;5011309;28;20046;-71
2021/12/26 03:37:04;;;;;;;4.88;1.90;;;2.30;76.90;;;;;;5010770;28;20137;-70
2021/12/26 03:39:30;;;;;;;5.22;2.40;;;2.30;76.80;;;;;;5010957;28;20054;-71
2021/12/26 03:41:59;;;;;;;6.45;2.45;;;2.30;76.70;;;;;;5011110;28;20053;-70
2021/12/26 03:44:26;;;;;;;4.57;2.40;;;2.30;76.90;;;;;;5011434;28;20053;-70
2021/12/26 03:46:56;;;;;;;3.70;2.10;;;2.30;77.00;;;;;;5011413;28;20053;-70
2021/12/26 03:49:23;;;;;;;8.25;2.35;;;2.30;76.90;;;;;;5027418;28;20164;-69
2021/12/26 03:51:51;;;;;;;6.30;2.17;;;2.30;77.00;;;;;;5011363;28;20058;-71
2021/12/26 03:54:19;;;;;;;5.18;2.13;;;2.30;77.20;;;;;;5026703;28;20050;-69
2021/12/26 03:56:46;;;;;;;4.55;1.95;;;2.30;77.20;;;;;;5012715;28;20068;-71
2021/12/26 03:59:19;;;;;;;5.22;1.75;;;2.30;77.30;;;;;;5027799;28;20060;-69
2021/12/26 04:01:47;;;;;;;4.90;1.95;;;2.30;77.40;;;;;;5002270;28;20104;-70
2021/12/26 04:04:14;;;;;;;3.78;1.83;;;2.40;77.40;;;;;;5026433;28;20081;-69
2021/12/26 04:06:40;;;;;;;4.07;1.70;;;2.40;77.40;;;;;;5012018;28;20045;-70
2021/12/26 04:09:09;;;;;;;2.85;1.63;;;2.40;77.30;;;;;;5010365;28;20100;-70
2021/12/26 04:11:39;;;;;;;4.80;2.38;;;2.40;77.00;;;;;;5009431;28;20084;-70
2021/12/26 04:14:08;;;;;;;4.53;2.15;;;2.40;77.10;;;;;;5008859;28;20057;-70
2021/12/26 04:16:37;;;;;;;3.92;1.98;;;2.30;77.20;;;;;;5008848;28;20069;-70
2021/12/26 04:19:05;;;;;;;7.68;2.60;;;2.40;77.40;;;;;;5023837;28;20081;-70
2021/12/26 04:21:32;;;;;;;4.13;1.90;;;2.40;77.30;;;;;;5008891;28;20567;-71
2021/12/26 04:24:02;;;;;;;4.15;1.90;;;2.40;77.30;;;;;;5007869;28;20500;-71
2021/12/26 04:26:34;;;;;;;4.18;2.17;;;2.40;77.40;;;;;;5008696;28;20068;-70
2021/12/26 04:29:01;;;;;;;3.60;1.60;;;2.40;77.50;;;;;;5009719;28;20076;-70
2021/12/26 04:31:30;;;;;;;4.88;2.28;;;2.40;77.30;;;;;;5024539;28;20058;-70
2021/12/26 04:33:58;;;;;;;5.28;2.20;;;2.40;77.40;;;;;;5007388;28;20068;-71
2021/12/26 04:36:25;;;;;;;3.65;1.60;;;2.40;77.50;;;;;;5008804;28;20137;-70
2021/12/26 04:38:52;;;;;;;4.05;1.70;;;2.40;77.50;;;;;;5007366;28;20661;-69
2021/12/26 04:41:20;;;;;;;3.92;2.05;;;2.40;77.60;;;;;;5024013;28;20046;-73
2021/12/26 04:44:26;;;;;;;2.78;1.35;;;2.40;77.60;;;;;;5008298;28;20514;-69
2021/12/26 04:47:29;;;;;;;3.13;2.13;;;2.40;77.60;;;;;;5024704;28;20565;-71
2021/12/26 04:49:57;;;;;;;5.35;2.17;;;2.40;77.50;;;;;;5007778;28;20428;-70
2021/12/26 04:52:31;;;;;;;3.60;1.90;;;2.50;77.60;;;;;;5009511;28;20112;-70
2021/12/26 04:55:01;;;;;;;3.70;1.58;;;2.50;77.60;;;;;;5025673;28;20042;-71
2021/12/26 04:57:28;;;;;;;5.70;2.17;;;2.40;77.70;;;;;;5026433;28;20049;-69
2021/12/26 04:59:55;;;;;;;3.03;1.20;;;2.50;77.60;;;;;;5010072;28;20050;-69
2021/12/26 05:02:23;;;;;;;4.55;1.83;;;2.50;77.60;;;;;;5007260;28;20042;-70
2021/12/26 05:04:50;;;;;;;3.70;1.65;;;2.50;77.50;;;;;;5010790;28;20057;-70
2021/12/26 05:07:19;;;;;;;5.93;2.63;;;2.50;77.70;;;;;;5011540;28;20541;-69
2021/12/26 05:09:46;;;;;;;2.25;1.25;;;2.50;77.70;;;;;;5011247;28;20133;-69
2021/12/26 05:12:15;;;;;;;5.70;1.60;;;2.50;78.00;;;;;;5026213;28;20054;-70
2021/12/26 05:14:42;;;;;;;4.05;1.70;;;2.50;78.10;;;;;;5026196;28;20050;-69
2021/12/26 05:17:09;;;;;;;4.72;1.58;;;2.40;78.10;;;;;;5011971;28;20038;-70
2021/12/26 05:19:36;;;;;;;4.00;1.85;;;2.50;78.00;;;;;;5009142;28;20052;-70
2021/12/26 05:22:04;;;;;;;5.20;2.47;;;2.50;77.90;;;;;;5008792;28;20050;-69
2021/12/26 05:24:33;;;;;;;5.03;2.13;;;2.50;77.90;;;;;;5009826;28;20072;-71
2021/12/26 05:27:01;;;;;;;6.40;2.50;;;2.50;77.90;;;;;;5009185;28;20054;-70
2021/12/26 05:29:31;;;;;;;4.43;1.75;;;2.50;77.90;;;;;;5026172;28;20049;-70
2021/12/26 05:31:58;;;;;;;5.00;2.47;;;2.50;78.00;;;;;;5010487;28;20053;-70
2021/12/26 05:34:25;;;;;;;3.40;1.90;;;2.50;77.90;;;;;;5025279;28;20046;-71
2021/12/26 05:36:53;;;;;;;3.47;1.73;;;2.50;77.90;;;;;;5025435;28;20065;-70
2021/12/26 05:39:20;;;;;;;6.00;1.92;;;2.50;78.10;;;;;;5025193;28;20112;-70
2021/12/26 05:41:48;;;;;;;4.53;1.83;;;2.50;78.10;;;;;;5008590;28;20058;-71
2021/12/26 05:44:30;;;;;;;6.03;2.83;;;2.50;78.10;;;;;;5009262;28;20045;-69
2021/12/26 05:46:58;;;;;;;5.57;1.88;;;2.50;78.10;;;;;;5025392;28;20046;-70
2021/12/26 05:49:28;;;;;;;5.85;2.15;;;2.40;78.10;;;;;;5008131;28;20073;-69
2021/12/26 05:52:12;;;;;;;4.35;1.98;;;2.50;78.10;;;;;;5006894;28;20053;-71
2021/12/26 05:54:45;;;;;;;6.22;1.80;;;2.50;77.90;;;;;;5008173;28;20061;-70
2021/12/26 05:57:13;;;;;;;2.08;1.33;;;2.50;78.00;;;;;;5007372;28;20056;-71
2021/12/26 05:59:40;;;;;;;4.28;1.95;;;2.50;78.10;;;;;;5006860;28;20088;-71
2021/12/26 06:02:07;;;;;;;3.72;1.50;;;2.50;78.10;;;;;;5006294;28;20057;-70
2021/12/26 06:04:37;;;;;;;2.75;1.50;;;2.50;78.00;;;;;;5005300;28;20053;-71
2021/12/26 06:07:05;;;;;;;3.80;1.92;;;2.50;78.00;;;;;;5007864;28;20068;-70
2021/12/26 06:09:33;;;;;;;4.70;1.95;;;2.50;78.10;;;;;;5008384;28;20050;-70
2021/12/26 06:12:04;;;;;;;2.92;1.58;;;2.50;78.10;;;;;;5023921;28;20137;-71
2021/12/26 06:14:33;;;;;;;4.32;2.22;;;2.50;78.30;;;;;;5022225;28;20056;-72
2021/12/26 06:17:01;;;;;;;4.93;2.28;;;2.50;78.30;;;;;;5007674;28;20165;-70
2021/12/26 06:19:56;;;;;;;4.50;2.13;;;2.50;78.40;;;;;;5008124;28;20549;-70
2021/12/26 06:22:29;;;;;;;4.03;1.98;;;2.50;78.40;;;;;;5023073;28;20136;-71
2021/12/26 06:25:17;;;;;;;4.95;2.30;;;2.40;78.60;;;;;;4985296;28;20065;-69
2021/12/26 06:28:13;;;;;;;4.03;1.92;;;2.40;78.50;;;;;;5002639;28;20054;-70
2021/12/26 06:30:54;;;;;;;3.00;1.60;;;2.50;78.30;;;;;;5008365;28;20061;-71
2021/12/26 06:33:40;;;;;;;7.13;2.90;;;2.40;78.20;;;;;;5009857;28;20053;-70
2021/12/26 06:36:26;;;;;;;3.92;1.73;;;2.50;78.30;;;;;;5009747;28;20407;-70
2021/12/26 06:39:08;;;;;;;4.63;1.77;;;2.50;78.30;;;;;;5009801;28;20042;-69
2021/12/26 06:41:54;;;;;;;3.72;1.75;;;2.50;78.20;;;;;;5007904;28;20067;-71
2021/12/26 06:44:39;;;;;;;4.72;1.63;;;2.50;78.30;;;;;;5008931;28;20141;-71
2021/12/26 06:47:14;;;;;;;4.40;2.05;;;2.50;78.40;;;;;;5007796;28;20061;-69
2021/12/26 06:49:43;;;;;;;4.80;2.03;;;2.50;78.30;;;;;;5021545;28;20042;-69
2021/12/26 06:52:10;;;;;;;4.55;1.85;;;2.50;78.30;;;;;;5009124;28;20050;-69
2021/12/26 06:54:38;;;;;;;3.78;1.98;;;2.50;78.30;;;;;;5009100;28;20046;-69
2021/12/26 06:57:06;;;;;;;5.28;1.65;;;2.50;78.40;;;;;;5009223;28;20049;-70
2021/12/26 06:59:33;;;;;;;2.65;1.58;;;2.50;78.40;;;;;;5006492;28;20049;-71
2021/12/26 07:02:00;;;;;;;3.42;1.88;;;2.50;78.50;;;;;;5022914;28;20400;-69
2021/12/26 07:04:50;;;;;;;6.00;2.50;;;2.60;78.50;;;;;;5026781;28;20048;-70
2021/12/26 07:07:21;;;;;;;5.00;2.00;;;2.50;78.40;;;;;;5002081;28;20092;-69
2021/12/26 07:09:48;;;;;;;10.57;2.90;;;2.50;78.50;;;;;;5011151;28;20165;-71
2021/12/26 07:12:17;;;;;;;5.07;1.60;;;2.60;78.40;;;;;;5027392;28;20050;-69
2021/12/26 07:14:55;;;;;;;4.15;2.05;;;2.60;78.30;;;;;;5024158;28;20157;-69
2021/12/26 07:17:22;;;;;;;4.85;2.00;;;2.50;78.30;;;;;;5017989;28;20056;-70
2021/12/26 07:19:54;;;;;;;4.57;2.23;;;2.50;78.40;;;;;;5001216;28;20047;-71
2021/12/26 07:22:49;;;;;;;4.97;2.28;;;2.50;78.30;;;;;;5001203;28;20567;-70
2021/12/26 07:25:17;;;;;;;5.85;2.22;;;2.50;78.30;;;;;;5000750;28;20117;-70
2021/12/26 07:27:44;;;;;;;6.78;2.83;;;2.60;78.10;;;;;;5011049;28;20046;-71
2021/12/26 07:30:31;;;;;;;4.82;2.60;;;2.60;78.10;;;;;;5005405;28;20076;-71
2021/12/26 07:32:59;;;;;;;6.43;2.67;;;2.60;78.10;;;;;;5009026;28;20061;-70
2021/12/26 07:35:27;;;;;;;7.57;2.63;;;2.50;78.10;;;;;;5008703;28;20080;-69
2021/12/26 07:38:07;;;;;;;5.82;2.33;;;2.50;78.30;;;;;;5008783;28;20054;-70
2021/12/26 07:40:34;;;;;;;6.70;2.45;;;2.50;78.50;;;;;;5008460;28;20049;-72
2021/12/26 07:43:08;;;;;;;5.10;2.50;;;2.50;78.50;;;;;;5008721;28;20415;-71
2021/12/26 07:45:53;;;;;;;5.95;2.25;;;2.50;78.60;;;;;;5009943;28;20056;-71
2021/12/26 07:48:20;;;;;;;7.97;3.22;;;2.60;78.70;;;;;;5009432;28;20040;-70
2021/12/26 07:50:49;;;;;;;5.93;3.03;;;2.60;78.60;;;;;;5009418;28;20050;-72
2021/12/26 07:53:34;;;;;;;6.55;2.53;;;2.60;78.60;;;;;;5009366;28;20077;-72
2021/12/26 07:56:28;;;;;;;6.35;2.25;;;2.60;78.50;;;;;;4994959;28;20439;-71
2021/12/26 07:59:13;;;;;;;5.07;2.17;;;2.60;78.70;;;;;;5010759;28;20065;-70
2021/12/26 08:01:59;;;;;;;6.80;2.47;;;2.60;78.70;;;;;;5007209;28;20099;-70
2021/12/26 08:05:01;;;;;;;6.95;2.92;;;2.60;78.70;;;;;;5010267;28;20057;-70
2021/12/26 08:07:48;;;;;;;7.47;3.25;;;2.60;78.70;;;;;;5008893;28;20046;-70
2021/12/26 08:10:18;;;;;;;7.60;3.42;;;2.60;78.60;;;;;;5008589;28;20537;-71
2021/12/26 08:12:47;;;;;;;5.93;2.80;;;2.60;78.50;;;;;;5009873;28;20058;-71
2021/12/26 08:15:14;;;;;;;7.50;3.20;;;2.60;78.60;;;;;;5009631;28;20403;-72
2021/12/26 08:17:41;;;;;;;10.57;4.30;;;2.60;78.60;;;;;;5011450;28;20046;-72
2021/12/26 08:20:09;;;;;;;8.57;2.97;;;2.60;78.50;;;;;;5011999;28;20042;-71
2021/12/26 08:22:36;;;;;;;9.02;3.60;;;2.70;78.80;;;;;;5011940;28;20054;-71
2021/12/26 08:25:06;;;;;;;5.93;2.47;;;2.60;78.90;;;;;;5011267;28;20080;-71
2021/12/26 08:27:33;;;;;;;8.25;4.05;;;2.60;78.70;;;;;;5011103;28;20483;-70
2021/12/26 08:30:00;;;;;;;7.32;3.40;;;2.70;78.80;;;;;;5011864;28;20042;-70
2021/12/26 08:32:33;;;;;;;9.85;3.92;;;2.70;78.90;;;;;;5011572;28;20124;-70
2021/12/26 08:35:01;;;;;;;9.48;3.88;;;2.70;78.80;;;;;;5011260;28;20049;-70
2021/12/26 08:37:29;;;;;;;6.38;3.10;;;2.70;78.80;;;;;;5011599;28;20045;-71
2021/12/26 08:39:56;;;;;;;11.50;3.97;;;2.70;78.70;;;;;;5011801;28;20082;-71
2021/12/26 08:42:24;;;;;;;8.95;4.22;;;2.70;78.70;;;;;;5011238;28;20492;-71
2021/12/26 08:44:53;;;;;;;7.43;3.22;;;2.70;78.70;;;;;;5010886;28;20046;-70
2021/12/26 08:47:20;;;;;;;10.02;3.80;;;2.70;78.90;;;;;;5011107;28;20077;-71
2021/12/26 08:49:47;;;;;;;9.20;5.00;;;2.70;79.10;;;;;;5010420;28;20466;-70
2021/12/26 08:52:14;;;;;;;8.02;3.42;;;2.70;79.30;;;;;;5011990;28;20056;-72
2021/12/26 08:54:41;;;;;;;7.03;3.63;;;2.70;79.10;;;;;;5011090;28;20045;-70
2021/12/26 08:57:09;;;;;;;8.13;3.92;;;2.70;79.00;;;;;;5011009;28;20073;-70
2021/12/26 08:59:40;;;;;;;9.07;4.35;;;2.80;79.00;;;;;;5010785;28;20447;-71
2021/12/26 09:02:08;;;;;;;8.85;3.47;;;2.80;79.10;;;;;;5010301;28;20459;-71
2021/12/26 09:04:36;;;;;;;6.68;3.28;;;2.90;79.10;;;;;;5010141;28;20042;-71
2021/12/26 09:07:03;;;;;;;7.82;3.08;;;2.90;79.00;;;;;;5010119;28;20041;-70
2021/12/26 09:09:30;;;;;;;6.45;3.15;;;2.90;78.90;;;;;;5010655;28;20059;-71
2021/12/26 09:11:58;;;;;;;9.45;3.53;;;2.90;78.90;;;;;;5011071;28;20041;-72
2021/12/26 09:14:26;;;;;;;6.82;3.28;;;2.90;79.10;;;;;;5009070;28;20376;-72
2021/12/26 09:16:55;;;;;;;8.68;2.95;;;2.90;79.10;;;;;;5009030;28;20489;-71
2021/12/26 09:19:23;;;;;;;7.03;3.95;;;2.90;79.10;;;;;;5009116;28;20419;-72
2021/12/26 09:21:50;;;;;;;8.48;4.13;;;2.90;79.10;;;;;;5008978;28;20049;-72
2021/12/26 09:24:17;;;;;;;7.43;3.28;;;2.90;79.10;;;;;;5007179;28;20078;-70
2021/12/26 09:26:44;;;;;;;8.70;3.92;;;3.00;79.20;;;;;;5008755;28;20057;-70
2021/12/26 09:29:11;;;;;;;7.95;3.10;;;3.00;79.10;;;;;;5009092;28;20046;-71
2021/12/26 09:31:38;;;;;;;9.02;3.95;;;3.00;79.00;;;;;;5008511;28;20412;-71
2021/12/26 09:34:07;;;;;;;6.97;3.22;;;3.10;79.00;;;;;;5006566;28;20064;-72
2021/12/26 09:36:35;;;;;;;8.05;3.70;;;3.10;79.00;;;;;;5009277;28;20042;-71
2021/12/26 09:39:03;;;;;;;6.40;2.95;;;3.00;79.20;;;;;;5008470;28;20077;-72
2021/12/26 09:41:37;;;;;;;8.27;3.28;;;3.00;79.10;;;;;;5008340;28;20133;-73
2021/12/26 09:44:05;;;;;;;6.80;3.05;;;3.00;79.20;;;;;;5008346;28;20042;-71
2021/12/26 09:46:34;;;;;;;10.10;3.35;;;3.00;79.20;;;;;;5008721;28;20057;-70
2021/12/26 09:49:01;;;;;;;7.22;3.35;;;3.00;79.30;;;;;;5009208;28;20048;-72
2021/12/26 09:51:29;;;;;;;8.55;3.75;;;3.00;79.50;;;;;;5008125;28;20038;-71
2021/12/26 09:53:56;;;;;;;9.50;3.90;;;3.00;79.50;;;;;;5010050;28;20054;-71
2021/12/26 09:56:23;;;;;;;8.35;3.33;;;3.00;79.60;;;;;;5010078;28;20042;-71
2021/12/26 09:58:56;;;;;;;9.05;3.67;;;3.00;79.60;;;;;;5010100;28;20412;-71
2021/12/26 10:01:34;;;;;;;9.35;3.88;;;3.10;79.60;;;;;;5007715;28;20129;-71
2021/12/26 10:04:03;;;;;;;8.38;4.30;;;3.10;79.80;;;;;;5010140;28;20372;-71
2021/12/26 10:06:34;;;;;;;7.30;3.33;;;3.00;79.80;;;;;;5009117;28;20056;-71
2021/12/26 10:09:05;;;;;;;6.75;3.17;;;3.10;79.80;;;;;;5009743;28;20121;-71
2021/12/26 10:11:35;;;;;;;11.35;4.72;;;3.10;79.90;;;;;;5009613;28;20050;-70
2021/12/26 10:14:05;;;;;;;8.73;3.60;;;3.10;79.80;;;;;;5009970;28;20042;-72
2021/12/26 10:16:37;;;;;;;9.60;3.50;;;3.10;79.70;;;;;;5009831;28;20041;-73
2021/12/26 10:19:06;;;;;;;7.57;3.10;;;3.10;79.60;;;;;;5010405;28;20048;-72
2021/12/26 10:21:38;;;;;;;8.95;3.92;;;3.20;79.60;;;;;;5010210;28;20067;-71
2021/12/26 10:24:12;;;;;;;8.95;2.65;;;3.20;79.60;;;;;;5010095;28;20152;-71
2021/12/26 10:26:41;;;;;;;7.70;3.33;;;3.20;79.50;;;;;;5009353;28;20045;-71
2021/12/26 10:29:14;;;;;;;6.47;3.08;;;3.20;79.50;;;;;;5009778;28;20148;-71
2021/12/26 10:31:48;;;;;;;8.43;3.45;;;3.20;79.70;;;;;;5009446;28;20038;-72
2021/12/26 10:34:18;;;;;;;6.72;3.25;;;3.20;79.70;;;;;;5009680;28;20052;-71
2021/12/26 10:36:48;;;;;;;6.85;2.58;;;3.20;79.60;;;;;;5008874;28;20057;-71
2021/12/26 10:39:18;;;;;;;7.50;4.05;;;3.30;79.60;;;;;;5011453;28;20161;-70
2021/12/26 10:41:47;;;;;;;9.60;4.30;;;3.30;79.70;;;;;;5027821;28;20065;-71
2021/12/26 10:44:24;;;;;;;6.22;2.80;;;3.30;79.70;;;;;;5013471;28;20152;-70
2021/12/26 10:46:53;;;;;;;8.80;3.55;;;3.40;79.60;;;;;;5013660;28;20048;-71
2021/12/26 10:49:25;;;;;;;8.00;3.00;;;3.40;79.40;;;;;;5014320;28;20507;-72
2021/12/26 10:51:54;;;;;;;5.80;2.90;;;3.40;79.50;;;;;;5013191;28;20042;-71
2021/12/26 10:54:25;;;;;;;9.35;3.78;;;3.40;79.40;;;;;;5009949;28;20073;-71
2021/12/26 10:57:10;;;;;;;6.55;2.80;;;3.50;79.40;;;;;;5011947;28;20077;-70
2021/12/26 10:59:39;;;;;;;6.47;3.42;;;3.40;79.40;;;;;;5011240;28;20960;-71
2021/12/26 11:02:07;;;;;;;7.97;3.33;;;3.50;79.30;;;;;;5009586;28;20092;-73
2021/12/26 11:04:36;;;;;;;9.40;4.55;;;3.50;79.30;;;;;;5011069;28;20048;-72
2021/12/26 11:07:08;;;;;;;7.18;3.50;;;3.50;79.30;;;;;;5010767;28;20096;-71
2021/12/26 11:09:36;;;;;;;8.13;3.85;;;3.50;79.40;;;;;;5010966;28;20050;-72
2021/12/26 11:12:07;;;;;;;8.18;4.40;;;3.50;79.50;;;;;;5010234;28;20479;-74
2021/12/26 11:14:58;;;;;;;8.32;3.65;;;3.60;79.50;;;;;;5010138;28;20054;-73
2021/12/26 11:17:31;;;;;;;7.78;2.80;;;3.60;79.50;;;;;;5011877;28;20134;-71
2021/12/26 11:19:59;;;;;;;7.30;3.15;;;3.70;79.50;;;;;;5011697;28;20050;-71
2021/12/26 11:22:27;;;;;;;5.28;2.38;;;3.70;79.50;;;;;;5010665;28;20045;-71
2021/12/26 11:24:57;;;;;;;9.05;3.65;;;3.70;79.40;;;;;;5010280;28;20403;-71
2021/12/26 11:27:24;;;;;;;9.15;3.55;;;3.70;79.40;;;;;;5009526;28;20071;-70
2021/12/26 11:29:52;;;;;;;7.60;3.53;;;3.70;79.40;;;;;;5009904;28;20117;-72
2021/12/26 11:32:20;;;;;;;7.95;3.70;;;3.70;79.40;;;;;;5011882;28;20550;-71
2021/12/26 11:34:49;;;;;;;13.63;4.00;;;3.70;79.40;;;;;;5012737;28;20048;-71
2021/12/26 11:37:16;;;;;;;6.78;2.67;;;3.70;79.50;;;;;;5012895;28;20045;-70
2021/12/26 11:40:10;;;;;;;7.82;3.50;;;3.70;79.40;;;;;;5004886;28;20089;-72
2021/12/26 11:43:39;;;;;;;7.50;3.10;;;3.70;79.60;;;;;;5012701;28;20188;-71
2021/12/26 11:46:41;;;;;;;8.20;4.07;;;3.70;79.60;;;;;;5011862;28;20100;-70
2021/12/26 11:50:10;;;;;;;9.10;3.80;;;3.70;79.50;;;;;;5012481;28;20503;-71
2021/12/26 11:53:13;;;;;;;6.72;2.92;;;3.80;79.50;;;;;;5006227;28;20547;-71
2021/12/26 11:56:03;;;;;;;13.15;5.57;;;3.80;79.50;;;;;;5011967;28;20082;-70
2021/12/26 11:58:45;;;;;;;9.35;4.65;;;3.80;79.40;;;;;;5011872;28;20129;-71
2021/12/26 12:01:15;;;;;;;9.55;4.22;;;3.80;79.40;;;;;;5009038;28;20052;-71
2021/12/26 12:03:45;;;;;;;11.23;4.68;;;3.80;79.60;;;;;;5012422;28;20121;-71
2021/12/26 12:06:25;;;;;;;12.07;4.50;;;3.80;79.60;;;;;;5011378;28;20060;-72
2021/12/26 12:08:52;;;;;;;10.87;4.33;;;3.80;79.50;;;;;;5011685;28;20050;-72
2021/12/26 12:11:20;;;;;;;6.68;3.15;;;3.80;79.50;;;;;;5011709;28;20526;-71
2021/12/26 12:13:49;;;;;;;7.80;3.70;;;3.80;79.50;;;;;;5011205;28;20053;-71
2021/12/26 12:16:31;;;;;;;9.40;4.22;;;3.80;79.40;;;;;;5011507;28;20439;-71
2021/12/26 12:18:59;;;;;;;8.57;3.75;;;3.80;79.40;;;;;;5010911;28;20072;-72
2021/12/26 12:21:33;;;;;;;8.35;2.83;;;3.80;79.40;;;;;;5010742;28;20576;-71
2021/12/26 12:24:03;;;;;;;11.15;5.20;;;3.90;79.50;;;;;;5011389;28;20050;-70
2021/12/26 12:26:47;;;;;;;7.20;3.28;;;3.90;79.50;;;;;;5011913;28;20120;-71
2021/12/26 12:29:33;;;;;;;10.85;4.00;;;3.90;79.60;;;;;;5011278;28;20041;-71
2021/12/26 12:32:14;;;;;;;6.93;3.83;;;4.00;79.50;;;;;;5010709;28;20042;-71
2021/12/26 12:34:54;;;;;;;8.52;3.47;;;3.90;79.60;;;;;;5010549;28;20513;-70
2021/12/26 12:37:38;;;;;;;8.38;3.22;;;3.90;79.70;;;;;;5008582;28;20379;-71
2021/12/26 12:40:19;;;;;;;7.22;3.28;;;4.00;79.60;;;;;;5009478;28;20250;-72
2021/12/26 12:43:07;;;;;;;7.65;3.47;;;4.00;79.60;;;;;;5009486;28;20120;-71
2021/12/26 12:46:05;;;;;;;8.95;3.85;;;3.90;79.60;;;;;;5009283;28;20045;-72
2021/12/26 12:48:40;;;;;;;7.72;3.08;;;3.90;79.60;;;;;;5009366;28;20042;-71
2021/12/26 12:51:45;;;;;;;9.55;3.55;;;3.90;79.70;;;;;;5010282;28;20054;-72
2021/12/26 12:54:30;;;;;;;7.57;3.10;;;3.90;79.70;;;;;;5009094;28;20065;-72
2021/12/26 12:56:59;;;;;;;7.28;3.65;;;4.00;79.90;;;;;;5009729;28;20477;-71
2021/12/26 12:59:42;;;;;;;6.85;3.75;;;4.00;79.80;;;;;;5008634;28;20045;-72
2021/12/26 13:02:24;;;;;;;8.13;3.70;;;4.00;79.80;;;;;;5006706;28;20054;-72
2021/12/26 13:04:51;;;;;;;9.02;3.95;;;4.00;80.00;;;;;;5009272;28;20041;-72
2021/12/26 13:07:20;;;;;;;8.38;3.60;;;4.00;79.80;;;;;;5009536;28;20575;-71
2021/12/26 13:09:51;;;;;;;8.85;3.72;;;4.00;79.80;;;;;;5009072;28;20054;-71
2021/12/26 13:12:20;;;;;;;7.85;3.33;;;4.00;79.80;;;;;;5008264;28;20060;-70
2021/12/26 13:14:54;;;;;;;9.60;3.95;;;4.00;79.80;;;;;;5009802;28;20510;-71
2021/12/26 13:17:31;;;;;;;6.22;3.35;;;4.00;79.90;;;;;;5010049;28;20038;-71
2021/12/26 13:20:00;;;;;;;9.32;3.90;;;4.00;79.90;;;;;;5010827;28;20042;-73
2021/12/26 13:22:42;;;;;;;8.93;3.88;;;4.00;79.90;;;;;;5009856;28;20123;-70
2021/12/26 13:25:10;;;;;;;7.28;3.28;;;4.00;79.90;;;;;;5010487;28;20054;-71
2021/12/26 13:27:37;;;;;;;8.82;4.10;;;4.00;79.90;;;;;;5010107;28;20121;-71